Brimley, MI

9:02 PM EDT on September 20, 2014 (GMT -0400)
Sault Ste Marie Municipal / Sanderson Field | Change Station
CLOSE
Current Station
Airport
Location: Sault Ste Marie,
Elevation: 715 ft
Nearby Weather Stations

Elev 715 ft 46.48 °N, 84.36 °W | Updated 7 minutes ago

Mostly Cloudy
Mostly Cloudy
57 °F
Feels Like 57 °F
N
10
Wind Variable Wind from WNW

Today
High -- | Low -- °F
--% Chance of Precip.
Yesterday
High -- | Low -- °F
Precip. -- in
7:22 AM 7:39 PM
Waning Crescent, 9% visible
Pressure 29.64 in
Visibility 10.0 miles
Clouds Overcast 1100 ft
Dew Point 53 °F
Humidity 87%
Rainfall 0.14 in
Snow Depth Not available.
UV 0 out of 12
Pollen .50 out of 12
Ozone Good
PM2.5 Good
Flu Activity Not available.
METAR KANJ 210055Z AUTO 29009KT 10SM OVC011 14/12 A2964 RMK AO2 CIG 007V015 SLP036 T01390117

More Conditions Fewer Conditions

Pressure 29.64 in
Visibility 10.0 miles
Clouds Overcast 1100 ft
Dew Point 53 °F
Humidity 87%
Rainfall 0.14 in
Snow Depth Not available.
UV 0 out of 12
Pollen .50 out of 12
Ozone Good
PM2.5 Good
Flu Activity Not available.
METAR KANJ 210055Z AUTO 29009KT 10SM OVC011 14/12 A2964 RMK AO2 CIG 007V015 SLP036 T01390117

More Conditions Fewer Conditions

Nowcast | as of 9:00 PM EDT on September 20, 2014

At 10 PM...mostly cloudy. Temperature 56. Northwest winds 9 mph. At 12 am...mostly cloudy. Temperature 53. Northwest winds 9 mph. At 2 am...mostly cloudy. Temperature 52. Northwest winds 7 mph. At 4 am...cloudy. Temperature 51. North winds 7 mph.

×

10-Day Weather Forecast

Almanac

Astronomy

Sep. 20, 2014 Rise Set
Actual Time 7:22 AM EDT 7:39 PM EDT
Civil Twilight 6:52 AM EDT 8:09 PM EDT
Nautical Twilight 6:16 AM EDT 8:45 PM EDT
Astronomical Twilight 5:40 AM EDT 9:21 PM EDT
Moon 3:51 AM EDT (9/20) 5:50 PM EDT (9/20)
Length of Visible Light 13h 17m
Length of Day
12h 17m
Tomorrow will be 3m 16s shorter.
Waning Crescent, 9% of the Moon is Illuminated
Today
Waning Crescent
Sep 24
New
Oct 1
First Quarter
Oct 8
Full
Oct 15
Last Quarter

Today's Extremes

State Highs State Lows

Community

WunderPhotos

Upload Photos

1,755,016 photos uploaded!

WunderBlogs® & News

Nearby

Air Quality

  Air Quality AQ Index Pollutant
Yesterday Good
OZONE
Yesterday Good
PM2.5
Current Good
PM2.5
Current Good
OZONE
Saturday Good
OZONE
Saturday Good
PM2.5
Sunday Good
OZONE
Sunday Good
PM2.5
Monday Good
OZONE
Monday Good
PM2.5

Snow Depth

Station Depth Elevation
No new snow has been reported.

Earthquake Activity

City Distance Mag. Time & Date
No recent earthquake activity has been reported nearby.
Minimum magnitude displayed is 2.5.

Coastal Water Temperatures

Place Temperature
De Tour Village, MI 55.9 °F
Rock Cut, MI 57.9 °F
Little Rapids, MI 57.0 °F
S W Pier, MI 57.9 °F
West Neebish, MI 57.9 °F

Nearby Weather Stations